CSN3099 ZGGG-ZBAD
Flight info
| Callsign | CSN3099 |
|---|---|
| Flight time | 2h 18m |
| Altitude | 40100 |
| Route | MIKIP9 MIKIP A461 BUBDA W56 ORODO W62 TEKIL G212 BELAX BELAX5L |
| Aircraft | A359/H-SDE2E3GHIJ3J4J5LM1ORWXY/LB1D1 |
Departure
| Time | 2026-04-24 11:40 |
|---|---|
| Airport | Guangzhou Baiyun International Airport (ZGGG) |
Arrival
| Time | 2026-04-24 13:58 |
|---|---|
| Airport | Beijing Daxing International Airport (ZBAD) |
| Time | Latitude | Longitude | Altitude | Speed | Heading |
|---|---|---|---|---|---|
| 2026-04-24 10:56 | 23.39216 | 113.30384 | 62 ft | 0 kts | 194° |
| 2026-04-24 11:29 | 23.39228 | 113.30388 | 55 ft | 3 kts | 194° |
| 2026-04-24 11:30 | 23.39250 | 113.30391 | 57 ft | 4 kts | 159° |
| 2026-04-24 11:30 | 23.39266 | 113.30374 | 55 ft | 4 kts | 107° |
| 2026-04-24 11:30 | 23.39271 | 113.30351 | 55 ft | 1 kts | 104° |
| 2026-04-24 11:30 | 23.39272 | 113.30347 | 55 ft | 0 kts | 104° |
| 2026-04-24 11:34 | 23.39272 | 113.30348 | 55 ft | 3 kts | 104° |
| 2026-04-24 11:34 | 23.39255 | 113.30425 | 57 ft | 16 kts | 104° |
| 2026-04-24 11:34 | 23.39223 | 113.30544 | 57 ft | 13 kts | 124° |
| 2026-04-24 11:35 | 23.39146 | 113.30558 | 55 ft | 13 kts | 191° |
| 2026-04-24 11:35 | 23.39042 | 113.30530 | 58 ft | 17 kts | 193° |
| 2026-04-24 11:35 | 23.38954 | 113.30579 | 58 ft | 12 kts | 134° |
| 2026-04-24 11:35 | 23.38875 | 113.30585 | 57 ft | 13 kts | 193° |
| 2026-04-24 11:36 | 23.38768 | 113.30556 | 58 ft | 19 kts | 194° |
| 2026-04-24 11:36 | 23.38629 | 113.30519 | 55 ft | 23 kts | 194° |
| 2026-04-24 11:36 | 23.38462 | 113.30474 | 55 ft | 27 kts | 193° |
| 2026-04-24 11:36 | 23.38269 | 113.30422 | 57 ft | 30 kts | 193° |
| 2026-04-24 11:37 | 23.38063 | 113.30366 | 60 ft | 31 kts | 194° |
| 2026-04-24 11:37 | 23.37849 | 113.30308 | 58 ft | 30 kts | 194° |
| 2026-04-24 11:37 | 23.37721 | 113.30273 | 57 ft | 11 kts | 194° |
| 2026-04-24 11:37 | 23.37670 | 113.30266 | 57 ft | 7 kts | 169° |
| 2026-04-24 11:38 | 23.37635 | 113.30310 | 58 ft | 9 kts | 106° |
| 2026-04-24 11:38 | 23.37617 | 113.30387 | 57 ft | 12 kts | 104° |
| 2026-04-24 11:38 | 23.37595 | 113.30484 | 58 ft | 14 kts | 99° |
| 2026-04-24 11:38 | 23.37650 | 113.30554 | 58 ft | 14 kts | 19° |
| 2026-04-24 11:39 | 23.37719 | 113.30573 | 58 ft | 0 kts | 13° |
| 2026-04-24 11:39 | 23.37801 | 113.30595 | 60 ft | 44 kts | 13° |
| 2026-04-24 11:39 | 23.38356 | 113.30745 | 59 ft | 118 kts | 14° |
| 2026-04-24 11:39 | 23.39358 | 113.31016 | 100 ft | 175 kts | 13° |
| 2026-04-24 11:40 | 23.40524 | 113.31319 | 911 ft | 169 kts | 14° |
| 2026-04-24 11:40 | 23.41568 | 113.31590 | 1705 ft | 163 kts | 14° |
| 2026-04-24 11:40 | 23.42693 | 113.31892 | 2556 ft | 156 kts | 15° |
| 2026-04-24 11:40 | 23.43761 | 113.32218 | 2948 ft | 167 kts | 17° |
| 2026-04-24 11:41 | 23.44936 | 113.32595 | 3198 ft | 185 kts | 17° |
| 2026-04-24 11:41 | 23.46233 | 113.33000 | 3459 ft | 202 kts | 16° |
| 2026-04-24 11:41 | 23.47659 | 113.33435 | 3711 ft | 223 kts | 15° |
| 2026-04-24 11:41 | 23.49195 | 113.33897 | 4152 ft | 234 kts | 15° |
| 2026-04-24 11:42 | 23.50792 | 113.34374 | 4700 ft | 242 kts | 14° |
| 2026-04-24 11:42 | 23.52439 | 113.34865 | 5229 ft | 249 kts | 14° |
| 2026-04-24 11:42 | 23.54125 | 113.35369 | 5803 ft | 254 kts | 14° |
| 2026-04-24 11:42 | 23.55862 | 113.35849 | 6368 ft | 259 kts | 10° |
| 2026-04-24 11:43 | 23.57639 | 113.36217 | 6904 ft | 262 kts | 8° |
| 2026-04-24 11:43 | 23.59442 | 113.36559 | 7497 ft | 264 kts | 7° |
| 2026-04-24 11:43 | 23.61257 | 113.36901 | 8107 ft | 265 kts | 7° |
| 2026-04-24 11:43 | 23.63078 | 113.37248 | 8715 ft | 267 kts | 7° |
| 2026-04-24 11:44 | 23.64943 | 113.37608 | 9108 ft | 279 kts | 7° |
| 2026-04-24 11:44 | 23.66874 | 113.37973 | 9491 ft | 290 kts | 7° |
| 2026-04-24 11:44 | 23.68900 | 113.38358 | 10044 ft | 294 kts | 7° |
| 2026-04-24 11:44 | 23.70945 | 113.38747 | 10407 ft | 305 kts | 7° |
| 2026-04-24 11:45 | 23.73082 | 113.39152 | 10625 ft | 319 kts | 7° |
| 2026-04-24 11:45 | 23.75283 | 113.39571 | 10853 ft | 332 kts | 7° |
| 2026-04-24 11:45 | 23.77604 | 113.40014 | 11088 ft | 344 kts | 7° |
| 2026-04-24 11:45 | 23.80008 | 113.40474 | 11336 ft | 355 kts | 7° |
| 2026-04-24 11:46 | 23.82458 | 113.40944 | 11711 ft | 360 kts | 7° |
| 2026-04-24 11:46 | 23.84943 | 113.41422 | 12158 ft | 364 kts | 7° |
| 2026-04-24 11:46 | 23.87440 | 113.41908 | 12636 ft | 366 kts | 7° |
| 2026-04-24 11:46 | 23.89959 | 113.42390 | 13095 ft | 368 kts | 6° |
| 2026-04-24 11:47 | 23.92488 | 113.42873 | 13533 ft | 371 kts | 6° |
| 2026-04-24 11:47 | 23.95046 | 113.43365 | 13894 ft | 375 kts | 6° |
| 2026-04-24 11:47 | 23.97622 | 113.43857 | 14299 ft | 376 kts | 6° |
| 2026-04-24 11:47 | 24.00202 | 113.44351 | 14722 ft | 378 kts | 6° |
| 2026-04-24 11:48 | 24.02802 | 113.44850 | 15102 ft | 380 kts | 6° |
| 2026-04-24 11:48 | 24.05417 | 113.45351 | 15498 ft | 382 kts | 5° |
| 2026-04-24 11:48 | 24.08020 | 113.45583 | 15914 ft | 377 kts | 352° |
| 2026-04-24 11:48 | 24.10623 | 113.45329 | 16383 ft | 376 kts | 348° |
| 2026-04-24 11:49 | 24.13242 | 113.44973 | 16796 ft | 378 kts | 348° |
| 2026-04-24 11:49 | 24.15855 | 113.44610 | 17216 ft | 380 kts | 348° |
| 2026-04-24 11:49 | 24.18490 | 113.44248 | 17611 ft | 382 kts | 348° |
| 2026-04-24 11:49 | 24.21142 | 113.43887 | 18016 ft | 384 kts | 348° |
| 2026-04-24 11:50 | 24.23800 | 113.43526 | 18411 ft | 386 kts | 348° |
| 2026-04-24 11:50 | 24.26473 | 113.43165 | 18735 ft | 388 kts | 348° |
| 2026-04-24 11:50 | 24.29165 | 113.42801 | 19049 ft | 391 kts | 348° |
| 2026-04-24 11:50 | 24.31838 | 113.42440 | 19379 ft | 393 kts | 348° |
| 2026-04-24 11:51 | 24.34562 | 113.42109 | 19715 ft | 396 kts | 351° |
| 2026-04-24 11:51 | 24.37335 | 113.41987 | 20063 ft | 400 kts | 354° |
| 2026-04-24 11:51 | 24.40134 | 113.42010 | 20362 ft | 404 kts | 356° |
| 2026-04-24 11:51 | 24.42956 | 113.42108 | 20697 ft | 407 kts | 356° |
| 2026-04-24 11:52 | 24.45798 | 113.42236 | 21029 ft | 409 kts | 356° |
| 2026-04-24 11:52 | 24.48649 | 113.42359 | 21375 ft | 411 kts | 356° |
| 2026-04-24 11:52 | 24.51517 | 113.42468 | 21691 ft | 413 kts | 356° |
| 2026-04-24 11:52 | 24.54396 | 113.42563 | 22010 ft | 416 kts | 356° |
| 2026-04-24 11:53 | 24.57297 | 113.42652 | 22320 ft | 418 kts | 356° |
| 2026-04-24 11:53 | 24.60214 | 113.42736 | 22610 ft | 420 kts | 356° |
| 2026-04-24 11:53 | 24.63143 | 113.42817 | 22892 ft | 422 kts | 355° |
| 2026-04-24 11:53 | 24.66084 | 113.42899 | 23228 ft | 424 kts | 355° |
| 2026-04-24 11:54 | 24.69048 | 113.42984 | 23491 ft | 427 kts | 355° |
| 2026-04-24 11:54 | 24.72022 | 113.43067 | 23757 ft | 429 kts | 355° |
| 2026-04-24 11:54 | 24.75017 | 113.43151 | 23989 ft | 431 kts | 355° |
| 2026-04-24 11:54 | 24.78027 | 113.43234 | 24219 ft | 433 kts | 355° |
| 2026-04-24 11:55 | 24.81056 | 113.43321 | 24445 ft | 435 kts | 355° |
| 2026-04-24 11:55 | 24.84095 | 113.43407 | 24694 ft | 437 kts | 355° |
| 2026-04-24 11:55 | 24.87145 | 113.43493 | 24933 ft | 439 kts | 354° |
| 2026-04-24 11:55 | 24.90169 | 113.43578 | 25159 ft | 441 kts | 354° |
| 2026-04-24 11:56 | 24.93251 | 113.43665 | 25404 ft | 443 kts | 354° |
| 2026-04-24 11:56 | 24.96341 | 113.43753 | 25655 ft | 445 kts | 354° |
| 2026-04-24 11:56 | 24.99440 | 113.43842 | 25905 ft | 446 kts | 354° |
| 2026-04-24 11:56 | 25.02556 | 113.43931 | 26157 ft | 448 kts | 354° |
| 2026-04-24 11:57 | 25.05679 | 113.44020 | 26407 ft | 450 kts | 354° |
| 2026-04-24 11:57 | 25.08817 | 113.44109 | 26653 ft | 452 kts | 354° |
| 2026-04-24 11:57 | 25.11970 | 113.44199 | 26909 ft | 455 kts | 354° |
| 2026-04-24 11:57 | 25.15146 | 113.44289 | 27155 ft | 457 kts | 353° |
| 2026-04-24 11:58 | 25.18328 | 113.44380 | 27405 ft | 459 kts | 353° |
| 2026-04-24 11:58 | 25.21527 | 113.44472 | 27659 ft | 461 kts | 353° |
| 2026-04-24 11:58 | 25.24734 | 113.44567 | 28002 ft | 461 kts | 353° |
| 2026-04-24 11:58 | 25.27936 | 113.44662 | 28252 ft | 461 kts | 354° |
| 2026-04-24 11:59 | 25.31150 | 113.44762 | 28454 ft | 463 kts | 353° |
| 2026-04-24 11:59 | 25.34342 | 113.44854 | 28684 ft | 467 kts | 353° |
| 2026-04-24 11:59 | 25.37600 | 113.44941 | 28991 ft | 469 kts | 353° |
| 2026-04-24 11:59 | 25.40870 | 113.45030 | 29297 ft | 472 kts | 353° |
| 2026-04-24 12:00 | 25.44162 | 113.45122 | 29581 ft | 474 kts | 353° |
| 2026-04-24 12:00 | 25.47471 | 113.45216 | 29834 ft | 477 kts | 353° |
| 2026-04-24 12:00 | 25.50792 | 113.45312 | 30161 ft | 479 kts | 353° |
| 2026-04-24 12:00 | 25.54119 | 113.45412 | 30581 ft | 476 kts | 353° |
| 2026-04-24 12:01 | 25.57440 | 113.45509 | 30868 ft | 478 kts | 353° |
| 2026-04-24 12:01 | 25.60783 | 113.45605 | 31087 ft | 482 kts | 352° |
| 2026-04-24 12:01 | 25.64148 | 113.45699 | 31311 ft | 485 kts | 352° |
| 2026-04-24 12:01 | 25.67536 | 113.45794 | 31575 ft | 488 kts | 352° |
| 2026-04-24 12:02 | 25.70940 | 113.45889 | 31762 ft | 492 kts | 352° |
| 2026-04-24 12:02 | 25.74373 | 113.45987 | 32037 ft | 493 kts | 352° |
| 2026-04-24 12:02 | 25.77817 | 113.46086 | 32296 ft | 496 kts | 352° |
| 2026-04-24 12:02 | 25.81281 | 113.46186 | 32625 ft | 498 kts | 352° |
| 2026-04-24 12:03 | 25.84746 | 113.46287 | 32890 ft | 499 kts | 352° |
| 2026-04-24 12:03 | 25.88230 | 113.46385 | 33100 ft | 502 kts | 351° |
| 2026-04-24 12:03 | 25.91712 | 113.46364 | 33318 ft | 500 kts | 348° |
| 2026-04-24 12:03 | 25.95192 | 113.46223 | 33525 ft | 501 kts | 347° |
| 2026-04-24 12:04 | 25.98687 | 113.46035 | 33728 ft | 503 kts | 347° |
| 2026-04-24 12:04 | 26.02148 | 113.45845 | 33922 ft | 506 kts | 347° |
| 2026-04-24 12:04 | 26.05676 | 113.45667 | 34158 ft | 507 kts | 347° |
| 2026-04-24 12:04 | 26.08009 | 113.45559 | 34369 ft | 507 kts | 347° |
| 2026-04-24 12:05 | 26.11539 | 113.45411 | 34582 ft | 508 kts | 347° |
| 2026-04-24 12:05 | 26.15092 | 113.45270 | 34735 ft | 511 kts | 347° |
| 2026-04-24 12:05 | 26.19858 | 113.45086 | 35051 ft | 512 kts | 347° |
| 2026-04-24 12:05 | 26.22215 | 113.44997 | 35232 ft | 512 kts | 347° |
| 2026-04-24 12:06 | 26.25781 | 113.44863 | 35465 ft | 513 kts | 347° |
| 2026-04-24 12:06 | 26.29348 | 113.44728 | 35690 ft | 513 kts | 347° |
| 2026-04-24 12:06 | 26.32919 | 113.44593 | 35944 ft | 513 kts | 346° |
| 2026-04-24 12:06 | 26.36493 | 113.44457 | 36180 ft | 514 kts | 346° |
| 2026-04-24 12:07 | 26.40074 | 113.44319 | 36390 ft | 516 kts | 346° |
| 2026-04-24 12:07 | 26.43662 | 113.44180 | 36603 ft | 517 kts | 346° |
| 2026-04-24 12:07 | 26.47264 | 113.44041 | 36841 ft | 517 kts | 346° |
| 2026-04-24 12:07 | 26.50859 | 113.43904 | 37074 ft | 518 kts | 345° |
| 2026-04-24 12:08 | 26.54479 | 113.43771 | 37295 ft | 519 kts | 345° |
| 2026-04-24 12:08 | 26.58086 | 113.43635 | 37548 ft | 519 kts | 345° |
| 2026-04-24 12:08 | 26.61700 | 113.43495 | 37784 ft | 520 kts | 345° |
| 2026-04-24 12:08 | 26.65322 | 113.43353 | 38085 ft | 520 kts | 346° |
| 2026-04-24 12:09 | 26.68919 | 113.43217 | 38489 ft | 516 kts | 346° |
| 2026-04-24 12:09 | 26.72510 | 113.43082 | 38761 ft | 516 kts | 345° |
| 2026-04-24 12:09 | 26.76103 | 113.42943 | 38891 ft | 517 kts | 345° |
| 2026-04-24 12:09 | 26.79706 | 113.42805 | 39011 ft | 519 kts | 347° |
| 2026-04-24 12:10 | 26.83246 | 113.42686 | 39487 ft | 510 kts | 347° |
| 2026-04-24 12:10 | 26.86780 | 113.42560 | 39856 ft | 506 kts | 346° |
| 2026-04-24 12:10 | 26.90293 | 113.42422 | 40067 ft | 505 kts | 346° |
| 2026-04-24 12:11 | 26.97323 | 113.42133 | 40166 ft | 504 kts | 347° |
| 2026-04-24 12:11 | 27.04316 | 113.41857 | 40164 ft | 502 kts | 347° |
| 2026-04-24 12:12 | 27.11292 | 113.41584 | 40164 ft | 502 kts | 347° |
| 2026-04-24 12:12 | 27.18272 | 113.41313 | 40164 ft | 502 kts | 347° |
| 2026-04-24 12:13 | 27.25243 | 113.41044 | 40167 ft | 499 kts | 348° |
| 2026-04-24 12:13 | 27.32172 | 113.40778 | 40164 ft | 497 kts | 348° |
| 2026-04-24 12:14 | 27.39067 | 113.40707 | 40165 ft | 501 kts | 351° |
| 2026-04-24 12:14 | 27.46044 | 113.40914 | 40164 ft | 502 kts | 352° |
| 2026-04-24 12:15 | 27.53027 | 113.41125 | 40158 ft | 500 kts | 352° |
| 2026-04-24 12:15 | 27.59972 | 113.41289 | 40162 ft | 498 kts | 351° |
| 2026-04-24 12:16 | 27.66908 | 113.41435 | 40158 ft | 499 kts | 352° |
| 2026-04-24 12:16 | 27.73876 | 113.41961 | 40162 ft | 504 kts | 355° |
| 2026-04-24 12:17 | 27.80865 | 113.42688 | 40168 ft | 503 kts | 356° |
| 2026-04-24 12:17 | 27.87839 | 113.43377 | 40160 ft | 504 kts | 355° |
| 2026-04-24 12:18 | 27.94846 | 113.44013 | 40162 ft | 505 kts | 355° |
| 2026-04-24 12:18 | 28.01755 | 113.44613 | 40164 ft | 505 kts | 355° |
| 2026-04-24 12:19 | 28.08762 | 113.45221 | 40166 ft | 504 kts | 355° |
| 2026-04-24 12:19 | 28.15750 | 113.45774 | 40160 ft | 503 kts | 354° |
| 2026-04-24 12:20 | 28.22736 | 113.46247 | 40166 ft | 502 kts | 354° |
| 2026-04-24 12:20 | 28.29719 | 113.46725 | 40193 ft | 502 kts | 354° |
| 2026-04-24 12:21 | 28.36640 | 113.47213 | 40163 ft | 501 kts | 354° |
| 2026-04-24 12:21 | 28.43612 | 113.47719 | 40161 ft | 501 kts | 354° |
| 2026-04-24 12:22 | 28.50583 | 113.48217 | 40165 ft | 501 kts | 354° |
| 2026-04-24 12:22 | 28.57551 | 113.48709 | 40180 ft | 501 kts | 354° |
| 2026-04-24 12:23 | 28.64465 | 113.49202 | 40165 ft | 501 kts | 354° |
| 2026-04-24 12:23 | 28.71434 | 113.49701 | 40167 ft | 501 kts | 354° |
| 2026-04-24 12:24 | 28.78393 | 113.50205 | 40165 ft | 501 kts | 355° |
| 2026-04-24 12:24 | 28.85353 | 113.50709 | 40176 ft | 501 kts | 355° |
| 2026-04-24 12:25 | 28.92318 | 113.51206 | 40166 ft | 501 kts | 355° |
| 2026-04-24 12:25 | 28.99273 | 113.51704 | 40167 ft | 501 kts | 355° |
| 2026-04-24 12:26 | 29.06191 | 113.52202 | 40163 ft | 501 kts | 355° |
| 2026-04-24 12:26 | 29.13146 | 113.52703 | 40163 ft | 501 kts | 355° |
| 2026-04-24 12:27 | 29.20108 | 113.53206 | 40169 ft | 501 kts | 355° |
| 2026-04-24 12:27 | 29.27067 | 113.53711 | 40164 ft | 501 kts | 355° |
| 2026-04-24 12:28 | 29.34045 | 113.54262 | 40167 ft | 502 kts | 355° |
| 2026-04-24 12:28 | 29.41016 | 113.54880 | 40167 ft | 501 kts | 356° |
| 2026-04-24 12:29 | 29.47965 | 113.55498 | 40164 ft | 501 kts | 356° |
| 2026-04-24 12:29 | 29.54923 | 113.56106 | 40164 ft | 500 kts | 356° |
| 2026-04-24 12:30 | 29.61868 | 113.56709 | 40202 ft | 501 kts | 356° |
| 2026-04-24 12:30 | 29.68769 | 113.57309 | 40162 ft | 500 kts | 356° |
| 2026-04-24 12:31 | 29.75705 | 113.57912 | 40162 ft | 500 kts | 356° |
| 2026-04-24 12:31 | 29.82653 | 113.58519 | 40162 ft | 500 kts | 356° |
| 2026-04-24 12:32 | 29.89588 | 113.59125 | 40179 ft | 500 kts | 356° |
| 2026-04-24 12:32 | 29.96489 | 113.60702 | 40164 ft | 516 kts | 13° |
| 2026-04-24 12:33 | 30.03195 | 113.63775 | 40161 ft | 520 kts | 16° |
| 2026-04-24 12:33 | 30.09833 | 113.67113 | 40164 ft | 521 kts | 17° |
| 2026-04-24 12:34 | 30.16468 | 113.70481 | 40158 ft | 520 kts | 17° |
| 2026-04-24 12:34 | 30.23096 | 113.73818 | 40162 ft | 519 kts | 17° |
| 2026-04-24 12:35 | 30.29685 | 113.77120 | 40158 ft | 520 kts | 17° |
| 2026-04-24 12:35 | 30.36340 | 113.80453 | 40190 ft | 522 kts | 17° |
| 2026-04-24 12:36 | 30.42983 | 113.83791 | 40162 ft | 520 kts | 17° |
| 2026-04-24 12:36 | 30.49616 | 113.87129 | 40159 ft | 519 kts | 17° |
| 2026-04-24 12:37 | 30.56238 | 113.90465 | 40157 ft | 519 kts | 17° |
| 2026-04-24 12:37 | 30.62862 | 113.93807 | 40162 ft | 518 kts | 17° |
| 2026-04-24 12:38 | 30.69486 | 113.97079 | 40151 ft | 516 kts | 16° |
| 2026-04-24 12:38 | 30.76087 | 114.00489 | 40153 ft | 520 kts | 20° |
| 2026-04-24 12:39 | 30.89065 | 114.07744 | 40139 ft | 517 kts | 19° |
| 2026-04-24 12:40 | 30.95613 | 114.11293 | 40154 ft | 519 kts | 19° |
| 2026-04-24 12:40 | 31.02170 | 114.14844 | 40153 ft | 520 kts | 19° |
| 2026-04-24 12:41 | 31.08723 | 114.18410 | 40160 ft | 519 kts | 19° |
| 2026-04-24 12:41 | 31.15265 | 114.21967 | 40154 ft | 518 kts | 19° |
| 2026-04-24 12:42 | 31.21797 | 114.25523 | 40153 ft | 517 kts | 19° |
| 2026-04-24 12:42 | 31.28280 | 114.29060 | 40157 ft | 517 kts | 19° |
| 2026-04-24 12:43 | 31.34899 | 114.32236 | 40155 ft | 508 kts | 8° |
| 2026-04-24 12:43 | 31.41777 | 114.33350 | 40155 ft | 495 kts | 356° |
| 2026-04-24 12:44 | 31.48657 | 114.33637 | 40154 ft | 494 kts | 354° |
| 2026-04-24 12:44 | 31.55530 | 114.33791 | 40154 ft | 494 kts | 354° |
| 2026-04-24 12:45 | 31.62403 | 114.33957 | 40154 ft | 494 kts | 354° |
| 2026-04-24 12:45 | 31.69233 | 114.34149 | 40148 ft | 494 kts | 354° |
| 2026-04-24 12:46 | 31.76117 | 114.34358 | 40147 ft | 495 kts | 354° |
| 2026-04-24 12:46 | 31.82994 | 114.34573 | 40140 ft | 495 kts | 355° |
| 2026-04-24 12:47 | 31.89878 | 114.34789 | 40139 ft | 495 kts | 354° |
| 2026-04-24 12:47 | 31.96767 | 114.34990 | 40152 ft | 495 kts | 354° |
| 2026-04-24 12:48 | 32.03654 | 114.35194 | 40162 ft | 495 kts | 355° |
| 2026-04-24 12:48 | 32.10550 | 114.35402 | 40139 ft | 495 kts | 355° |
| 2026-04-24 12:49 | 32.17447 | 114.35611 | 40142 ft | 495 kts | 355° |
| 2026-04-24 12:49 | 32.24341 | 114.35821 | 40134 ft | 495 kts | 355° |
| 2026-04-24 12:50 | 32.31205 | 114.36191 | 40141 ft | 498 kts | 358° |
| 2026-04-24 12:50 | 32.38103 | 114.36891 | 40134 ft | 498 kts | 359° |
| 2026-04-24 12:51 | 32.43855 | 114.37487 | 40136 ft | 497 kts | 358° |
| 2026-04-24 12:51 | 32.50762 | 114.38153 | 40129 ft | 497 kts | 358° |
| 2026-04-24 12:52 | 32.57652 | 114.38787 | 40128 ft | 496 kts | 358° |
| 2026-04-24 12:52 | 32.65715 | 114.39523 | 40134 ft | 498 kts | 358° |
| 2026-04-24 12:53 | 32.71462 | 114.40055 | 40130 ft | 498 kts | 358° |
| 2026-04-24 12:53 | 32.78338 | 114.40694 | 40124 ft | 498 kts | 358° |
| 2026-04-24 12:54 | 32.85237 | 114.41338 | 40123 ft | 497 kts | 358° |
| 2026-04-24 12:54 | 32.92138 | 114.41983 | 40126 ft | 497 kts | 358° |
| 2026-04-24 12:55 | 32.99036 | 114.42628 | 40126 ft | 497 kts | 358° |
| 2026-04-24 12:55 | 33.05932 | 114.43274 | 40128 ft | 497 kts | 358° |
| 2026-04-24 12:56 | 33.12822 | 114.43920 | 40125 ft | 497 kts | 358° |
| 2026-04-24 12:56 | 33.19713 | 114.44568 | 40123 ft | 497 kts | 358° |
| 2026-04-24 12:57 | 33.26607 | 114.45217 | 40129 ft | 497 kts | 359° |
| 2026-04-24 12:57 | 33.33501 | 114.45873 | 40123 ft | 497 kts | 359° |
| 2026-04-24 12:58 | 33.40397 | 114.46519 | 40123 ft | 497 kts | 359° |
| 2026-04-24 12:58 | 33.47291 | 114.47164 | 40123 ft | 497 kts | 359° |
| 2026-04-24 12:59 | 33.54139 | 114.47809 | 40124 ft | 497 kts | 359° |
| 2026-04-24 12:59 | 33.61027 | 114.48460 | 40123 ft | 496 kts | 359° |
| 2026-04-24 13:00 | 33.67923 | 114.49117 | 40126 ft | 496 kts | 359° |
| 2026-04-24 13:00 | 33.74814 | 114.49756 | 40129 ft | 496 kts | 359° |
| 2026-04-24 13:01 | 33.81697 | 114.50396 | 40125 ft | 496 kts | 359° |
| 2026-04-24 13:01 | 33.88578 | 114.51049 | 40124 ft | 496 kts | 359° |
| 2026-04-24 13:02 | 33.95456 | 114.51694 | 40129 ft | 496 kts | 359° |
| 2026-04-24 13:02 | 34.02345 | 114.52341 | 40128 ft | 496 kts | 359° |
| 2026-04-24 13:03 | 34.09223 | 114.52991 | 40128 ft | 496 kts | 359° |
| 2026-04-24 13:03 | 34.16058 | 114.53639 | 40129 ft | 496 kts | 359° |
| 2026-04-24 13:04 | 34.22976 | 114.54295 | 40134 ft | 495 kts | 359° |
| 2026-04-24 13:04 | 34.29807 | 114.54945 | 40124 ft | 495 kts | 359° |
| 2026-04-24 13:05 | 34.36676 | 114.55600 | 40123 ft | 494 kts | 359° |
| 2026-04-24 13:05 | 34.43540 | 114.56254 | 40134 ft | 494 kts | 359° |
| 2026-04-24 13:06 | 34.50393 | 114.56914 | 40124 ft | 493 kts | 359° |
| 2026-04-24 13:06 | 34.57239 | 114.57561 | 40128 ft | 493 kts | 359° |
| 2026-04-24 13:07 | 34.64083 | 114.58205 | 40124 ft | 493 kts | 359° |
| 2026-04-24 13:07 | 34.70913 | 114.58852 | 40123 ft | 492 kts | 360° |
| 2026-04-24 13:08 | 34.77737 | 114.59502 | 40120 ft | 492 kts | 360° |
| 2026-04-24 13:08 | 34.84562 | 114.60153 | 40121 ft | 492 kts | 360° |
| 2026-04-24 13:09 | 34.94747 | 114.61127 | 40121 ft | 491 kts | 360° |
| 2026-04-24 13:09 | 35.01576 | 114.61781 | 40120 ft | 491 kts | 360° |
| 2026-04-24 13:10 | 35.08392 | 114.62435 | 40121 ft | 491 kts | 360° |
| 2026-04-24 13:10 | 35.15206 | 114.63090 | 40122 ft | 490 kts | 0° |
| 2026-04-24 13:11 | 35.22008 | 114.63745 | 40117 ft | 490 kts | 0° |
| 2026-04-24 13:11 | 35.28801 | 114.64400 | 40120 ft | 489 kts | 0° |
| 2026-04-24 13:12 | 35.35551 | 114.65052 | 40123 ft | 489 kts | 0° |
| 2026-04-24 13:12 | 35.42336 | 114.65709 | 40117 ft | 488 kts | 0° |
| 2026-04-24 13:13 | 35.49120 | 114.66366 | 40115 ft | 488 kts | 0° |
| 2026-04-24 13:13 | 35.55903 | 114.67025 | 40115 ft | 488 kts | 0° |
| 2026-04-24 13:14 | 35.62673 | 114.67683 | 40113 ft | 488 kts | 0° |
| 2026-04-24 13:14 | 35.69401 | 114.68339 | 40110 ft | 487 kts | 0° |
| 2026-04-24 13:15 | 35.76164 | 114.68999 | 40107 ft | 487 kts | 0° |
| 2026-04-24 13:15 | 35.82926 | 114.69660 | 40106 ft | 487 kts | 1° |
| 2026-04-24 13:16 | 35.89656 | 114.70318 | 40106 ft | 488 kts | 1° |
| 2026-04-24 13:16 | 35.96416 | 114.70981 | 40105 ft | 487 kts | 1° |
| 2026-04-24 13:17 | 36.03191 | 114.71647 | 40106 ft | 487 kts | 1° |
| 2026-04-24 13:17 | 36.09966 | 114.72316 | 40104 ft | 487 kts | 1° |
| 2026-04-24 13:18 | 36.16697 | 114.72977 | 40100 ft | 487 kts | 1° |
| 2026-04-24 13:18 | 36.23455 | 114.73635 | 40102 ft | 487 kts | 1° |
| 2026-04-24 13:19 | 36.30219 | 114.74301 | 40098 ft | 487 kts | 1° |
| 2026-04-24 13:19 | 36.36987 | 114.74905 | 40094 ft | 485 kts | 357° |
| 2026-04-24 13:20 | 36.43731 | 114.74759 | 40094 ft | 484 kts | 354° |
| 2026-04-24 13:20 | 36.50406 | 114.74468 | 40086 ft | 483 kts | 354° |
| 2026-04-24 13:21 | 36.57119 | 114.74146 | 40086 ft | 482 kts | 354° |
| 2026-04-24 13:21 | 36.63826 | 114.73830 | 40081 ft | 482 kts | 354° |
| 2026-04-24 13:22 | 36.70532 | 114.73522 | 40085 ft | 482 kts | 354° |
| 2026-04-24 13:22 | 36.77242 | 114.73939 | 40077 ft | 487 kts | 7° |
| 2026-04-24 13:23 | 36.83710 | 114.76640 | 40076 ft | 494 kts | 20° |
| 2026-04-24 13:23 | 36.89940 | 114.80180 | 40080 ft | 495 kts | 22° |
| 2026-04-24 13:24 | 36.96161 | 114.83869 | 40072 ft | 494 kts | 22° |
| 2026-04-24 13:24 | 37.02367 | 114.87533 | 40068 ft | 493 kts | 22° |
| 2026-04-24 13:25 | 37.08591 | 114.91181 | 40074 ft | 493 kts | 22° |
| 2026-04-24 13:25 | 37.14806 | 114.94819 | 40063 ft | 492 kts | 22° |
| 2026-04-24 13:26 | 37.21012 | 114.98458 | 40058 ft | 489 kts | 22° |
| 2026-04-24 13:26 | 37.27126 | 115.02053 | 40066 ft | 488 kts | 21° |
| 2026-04-24 13:27 | 37.33322 | 115.05695 | 40064 ft | 493 kts | 22° |
| 2026-04-24 13:27 | 37.39537 | 115.09360 | 40060 ft | 493 kts | 22° |
| 2026-04-24 13:28 | 37.45701 | 115.13004 | 40060 ft | 493 kts | 22° |
| 2026-04-24 13:28 | 37.51901 | 115.16680 | 40060 ft | 491 kts | 22° |
| 2026-04-24 13:29 | 37.58068 | 115.20338 | 40061 ft | 489 kts | 22° |
| 2026-04-24 13:29 | 37.64234 | 115.23992 | 40056 ft | 489 kts | 22° |
| 2026-04-24 13:30 | 37.70380 | 115.27644 | 39942 ft | 480 kts | 22° |
| 2026-04-24 13:30 | 37.73387 | 115.29439 | 39466 ft | 477 kts | 22° |
| 2026-04-24 13:30 | 37.76420 | 115.31173 | 38783 ft | 478 kts | 18° |
| 2026-04-24 13:31 | 37.79575 | 115.32462 | 38011 ft | 476 kts | 10° |
| 2026-04-24 13:31 | 37.82787 | 115.33147 | 37323 ft | 471 kts | 2° |
| 2026-04-24 13:31 | 37.86039 | 115.33206 | 36671 ft | 466 kts | 353° |
| 2026-04-24 13:31 | 37.89269 | 115.32903 | 35989 ft | 465 kts | 352° |
| 2026-04-24 13:32 | 37.92487 | 115.32492 | 35292 ft | 464 kts | 351° |
| 2026-04-24 13:32 | 37.95414 | 115.32071 | 34628 ft | 464 kts | 351° |
| 2026-04-24 13:32 | 37.97311 | 115.31787 | 34172 ft | 466 kts | 351° |
| 2026-04-24 13:32 | 38.00554 | 115.31298 | 33260 ft | 468 kts | 351° |
| 2026-04-24 13:33 | 38.03789 | 115.30816 | 32408 ft | 468 kts | 351° |
| 2026-04-24 13:33 | 38.07029 | 115.30343 | 31541 ft | 469 kts | 351° |
| 2026-04-24 13:33 | 38.10277 | 115.29878 | 30697 ft | 470 kts | 352° |
| 2026-04-24 13:33 | 38.13511 | 115.29413 | 30121 ft | 465 kts | 351° |
| 2026-04-24 13:34 | 38.16710 | 115.28941 | 29465 ft | 461 kts | 351° |
| 2026-04-24 13:34 | 38.19881 | 115.28468 | 28846 ft | 455 kts | 351° |
| 2026-04-24 13:34 | 38.23010 | 115.28000 | 28239 ft | 450 kts | 352° |
| 2026-04-24 13:34 | 38.26105 | 115.27538 | 27640 ft | 445 kts | 352° |
| 2026-04-24 13:35 | 38.29166 | 115.27083 | 27049 ft | 441 kts | 352° |
| 2026-04-24 13:35 | 38.32205 | 115.26631 | 26457 ft | 436 kts | 352° |
| 2026-04-24 13:35 | 38.35167 | 115.26191 | 25888 ft | 432 kts | 352° |
| 2026-04-24 13:35 | 38.38139 | 115.25750 | 25295 ft | 428 kts | 352° |
| 2026-04-24 13:36 | 38.41085 | 115.25313 | 24722 ft | 425 kts | 352° |
| 2026-04-24 13:36 | 38.44017 | 115.24877 | 24139 ft | 421 kts | 353° |
| 2026-04-24 13:36 | 38.46914 | 115.24446 | 23556 ft | 418 kts | 353° |
| 2026-04-24 13:36 | 38.49797 | 115.24017 | 22891 ft | 415 kts | 353° |
| 2026-04-24 13:37 | 38.52650 | 115.23593 | 22307 ft | 411 kts | 353° |
| 2026-04-24 13:37 | 38.55483 | 115.23297 | 21717 ft | 407 kts | 359° |
| 2026-04-24 13:37 | 38.58289 | 115.23676 | 21112 ft | 405 kts | 12° |
| 2026-04-24 13:37 | 38.60914 | 115.24942 | 20505 ft | 405 kts | 27° |
| 2026-04-24 13:38 | 38.63152 | 115.27113 | 19891 ft | 405 kts | 44° |
| 2026-04-24 13:38 | 38.64788 | 115.30040 | 19279 ft | 406 kts | 62° |
| 2026-04-24 13:38 | 38.65464 | 115.32270 | 18873 ft | 407 kts | 73° |
| 2026-04-24 13:38 | 38.66618 | 115.36812 | 18030 ft | 405 kts | 67° |
| 2026-04-24 13:39 | 38.67677 | 115.40140 | 17356 ft | 403 kts | 66° |
| 2026-04-24 13:39 | 38.68778 | 115.43436 | 16727 ft | 401 kts | 65° |
| 2026-04-24 13:39 | 38.69906 | 115.46685 | 16108 ft | 399 kts | 65° |
| 2026-04-24 13:39 | 38.71057 | 115.49924 | 15489 ft | 397 kts | 65° |
| 2026-04-24 13:40 | 38.72269 | 115.53099 | 14836 ft | 396 kts | 61° |
| 2026-04-24 13:40 | 38.73169 | 115.55127 | 14475 ft | 394 kts | 59° |
| 2026-04-24 13:40 | 38.74558 | 115.58142 | 13927 ft | 391 kts | 59° |
| 2026-04-24 13:40 | 38.75945 | 115.61132 | 13306 ft | 389 kts | 59° |
| 2026-04-24 13:41 | 38.77318 | 115.64094 | 12730 ft | 385 kts | 59° |
| 2026-04-24 13:41 | 38.78677 | 115.67029 | 12161 ft | 381 kts | 59° |
| 2026-04-24 13:41 | 38.80028 | 115.69953 | 11811 ft | 382 kts | 59° |
| 2026-04-24 13:41 | 38.81389 | 115.72898 | 11749 ft | 383 kts | 59° |
| 2026-04-24 13:42 | 38.82729 | 115.75804 | 11728 ft | 370 kts | 59° |
| 2026-04-24 13:42 | 38.83999 | 115.78558 | 11749 ft | 348 kts | 59° |
| 2026-04-24 13:42 | 38.85196 | 115.81159 | 11743 ft | 328 kts | 59° |
| 2026-04-24 13:42 | 38.86312 | 115.83583 | 11772 ft | 312 kts | 59° |
| 2026-04-24 13:43 | 38.87407 | 115.85966 | 11793 ft | 310 kts | 59° |
| 2026-04-24 13:43 | 38.88500 | 115.88345 | 11784 ft | 307 kts | 59° |
| 2026-04-24 13:43 | 38.89574 | 115.90684 | 11378 ft | 304 kts | 59° |
| 2026-04-24 13:43 | 38.90655 | 115.93038 | 10811 ft | 305 kts | 59° |
| 2026-04-24 13:44 | 38.91725 | 115.95373 | 10058 ft | 303 kts | 59° |
| 2026-04-24 13:44 | 38.92793 | 115.97704 | 9252 ft | 301 kts | 59° |
| 2026-04-24 13:44 | 38.93849 | 116.00009 | 8525 ft | 296 kts | 59° |
| 2026-04-24 13:44 | 38.94879 | 116.02262 | 8146 ft | 292 kts | 59° |
| 2026-04-24 13:45 | 38.95909 | 116.04514 | 7835 ft | 292 kts | 59° |
| 2026-04-24 13:45 | 38.96935 | 116.06761 | 7509 ft | 291 kts | 59° |
| 2026-04-24 13:45 | 38.98068 | 116.08895 | 7189 ft | 289 kts | 46° |
| 2026-04-24 13:45 | 38.99582 | 116.10429 | 7016 ft | 265 kts | 31° |
| 2026-04-24 13:46 | 39.01083 | 116.11604 | 6883 ft | 251 kts | 30° |
| 2026-04-24 13:46 | 39.02577 | 116.12748 | 6772 ft | 250 kts | 30° |
| 2026-04-24 13:46 | 39.04068 | 116.13893 | 6573 ft | 248 kts | 30° |
| 2026-04-24 13:46 | 39.05546 | 116.15032 | 6319 ft | 247 kts | 30° |
| 2026-04-24 13:47 | 39.06977 | 116.16233 | 6048 ft | 246 kts | 38° |
| 2026-04-24 13:47 | 39.08000 | 116.17984 | 5909 ft | 248 kts | 69° |
| 2026-04-24 13:47 | 39.08376 | 116.20150 | 5900 ft | 248 kts | 82° |
| 2026-04-24 13:47 | 39.08581 | 116.22357 | 5896 ft | 247 kts | 83° |
| 2026-04-24 13:48 | 39.08776 | 116.24556 | 5889 ft | 248 kts | 83° |
| 2026-04-24 13:48 | 39.08977 | 116.26762 | 5883 ft | 249 kts | 84° |
| 2026-04-24 13:48 | 39.09186 | 116.28996 | 5839 ft | 251 kts | 84° |
| 2026-04-24 13:48 | 39.09395 | 116.31226 | 5467 ft | 252 kts | 84° |
| 2026-04-24 13:49 | 39.09608 | 116.33467 | 5226 ft | 252 kts | 84° |
| 2026-04-24 13:49 | 39.09821 | 116.35710 | 5118 ft | 251 kts | 83° |
| 2026-04-24 13:49 | 39.10032 | 116.37931 | 5011 ft | 249 kts | 83° |
| 2026-04-24 13:49 | 39.10242 | 116.40131 | 4920 ft | 248 kts | 84° |
| 2026-04-24 13:50 | 39.10451 | 116.42340 | 4819 ft | 248 kts | 84° |
| 2026-04-24 13:50 | 39.10712 | 116.44535 | 4725 ft | 249 kts | 77° |
| 2026-04-24 13:50 | 39.11464 | 116.46517 | 4622 ft | 248 kts | 47° |
| 2026-04-24 13:50 | 39.12877 | 116.47713 | 4541 ft | 243 kts | 15° |
| 2026-04-24 13:51 | 39.14541 | 116.48068 | 4448 ft | 242 kts | 0° |
| 2026-04-24 13:51 | 39.16220 | 116.48000 | 4357 ft | 242 kts | 352° |
| 2026-04-24 13:51 | 39.17896 | 116.47760 | 4271 ft | 242 kts | 351° |
| 2026-04-24 13:51 | 39.19545 | 116.47501 | 4176 ft | 242 kts | 351° |
| 2026-04-24 13:52 | 39.21217 | 116.47235 | 4084 ft | 241 kts | 351° |
| 2026-04-24 13:52 | 39.22879 | 116.46967 | 3997 ft | 240 kts | 350° |
| 2026-04-24 13:52 | 39.24481 | 116.46708 | 3895 ft | 221 kts | 350° |
| 2026-04-24 13:52 | 39.25931 | 116.46473 | 3826 ft | 199 kts | 350° |
| 2026-04-24 13:53 | 39.27241 | 116.46261 | 3772 ft | 181 kts | 349° |
| 2026-04-24 13:53 | 39.28448 | 116.46068 | 3690 ft | 169 kts | 349° |
| 2026-04-24 13:53 | 39.29586 | 116.45886 | 3522 ft | 163 kts | 348° |
| 2026-04-24 13:53 | 39.30713 | 116.45710 | 3279 ft | 162 kts | 349° |
| 2026-04-24 13:54 | 39.31816 | 116.45540 | 3044 ft | 157 kts | 348° |
| 2026-04-24 13:54 | 39.32881 | 116.45373 | 2822 ft | 152 kts | 348° |
| 2026-04-24 13:54 | 39.33932 | 116.45207 | 2630 ft | 152 kts | 348° |
| 2026-04-24 13:54 | 39.34984 | 116.45042 | 2429 ft | 153 kts | 348° |
| 2026-04-24 13:55 | 39.36022 | 116.44880 | 2223 ft | 147 kts | 348° |
| 2026-04-24 13:55 | 39.37031 | 116.44721 | 2039 ft | 146 kts | 347° |
| 2026-04-24 13:55 | 39.38038 | 116.44562 | 1845 ft | 146 kts | 347° |
| 2026-04-24 13:55 | 39.39047 | 116.44404 | 1655 ft | 145 kts | 348° |
| 2026-04-24 13:56 | 39.40053 | 116.44246 | 1455 ft | 146 kts | 347° |
| 2026-04-24 13:56 | 39.41062 | 116.44087 | 1268 ft | 146 kts | 348° |
| 2026-04-24 13:56 | 39.42064 | 116.43929 | 1076 ft | 145 kts | 349° |
| 2026-04-24 13:56 | 39.43062 | 116.43772 | 899 ft | 144 kts | 349° |
| 2026-04-24 13:57 | 39.44051 | 116.43613 | 678 ft | 140 kts | 351° |
| 2026-04-24 13:57 | 39.45020 | 116.43468 | 505 ft | 139 kts | 352° |
| 2026-04-24 13:57 | 39.45976 | 116.43321 | 364 ft | 139 kts | 352° |
| 2026-04-24 13:57 | 39.46933 | 116.43171 | 177 ft | 138 kts | 352° |
| 2026-04-24 13:58 | 39.47862 | 116.43026 | 103 ft | 122 kts | 354° |
| 2026-04-24 13:58 | 39.48477 | 116.42929 | 106 ft | 56 kts | 353° |
| 2026-04-24 13:58 | 39.48779 | 116.42854 | 104 ft | 39 kts | 336° |
| 2026-04-24 13:58 | 39.48963 | 116.42712 | 97 ft | 27 kts | 326° |
| 2026-04-24 13:59 | 39.49128 | 116.42605 | 94 ft | 17 kts | 351° |
| 2026-04-24 13:59 | 39.49215 | 116.42591 | 95 ft | 14 kts | 353° |
| 2026-04-24 13:59 | 39.49276 | 116.42582 | 95 ft | 7 kts | 353° |
| 2026-04-24 13:59 | 39.49312 | 116.42575 | 95 ft | 7 kts | 352° |
| 2026-04-24 14:00 | 39.49373 | 116.42561 | 95 ft | 11 kts | 343° |
| 2026-04-24 14:00 | 39.49451 | 116.42511 | 94 ft | 14 kts | 329° |
| 2026-04-24 14:00 | 39.49545 | 116.42437 | 97 ft | 18 kts | 333° |
| 2026-04-24 14:00 | 39.49674 | 116.42404 | 94 ft | 20 kts | 353° |